sensor_id;sensor_type;location;lat;lon;timestamp;P1;durP1;ratioP1;P2;durP2;ratioP2
12194;SDS011;27023;42.680;23.132;2022-11-21T00:00:09;9.40;;;9.17;;
12194;SDS011;27023;42.680;23.132;2022-11-21T00:02:37;11.10;;;10.80;;
12194;SDS011;27023;42.680;23.132;2022-11-21T00:05:03;11.10;;;10.80;;
12194;SDS011;27023;42.680;23.132;2022-11-21T00:07:31;10.30;;;10.00;;
12194;SDS011;27023;42.680;23.132;2022-11-21T00:09:57;10.67;;;10.37;;
12194;SDS011;27023;42.680;23.132;2022-11-21T00:12:24;10.73;;;10.43;;
12194;SDS011;27023;42.680;23.132;2022-11-21T00:14:51;11.37;;;11.03;;
12194;SDS011;27023;42.680;23.132;2022-11-21T00:17:19;11.20;;;10.90;;
12194;SDS011;27023;42.680;23.132;2022-11-21T00:19:45;13.60;;;13.13;;
12194;SDS011;27023;42.680;23.132;2022-11-21T00:22:12;11.80;;;11.43;;
12194;SDS011;27023;42.680;23.132;2022-11-21T00:24:38;10.60;;;10.30;;
12194;SDS011;27023;42.680;23.132;2022-11-21T00:27:05;10.20;;;9.93;;
12194;SDS011;27023;42.680;23.132;2022-11-21T00:29:32;11.53;;;11.13;;
12194;SDS011;27023;42.680;23.132;2022-11-21T00:32:00;11.43;;;11.10;;
12194;SDS011;27023;42.680;23.132;2022-11-21T00:34:28;10.13;;;9.83;;
12194;SDS011;27023;42.680;23.132;2022-11-21T00:36:55;10.90;;;10.60;;
12194;SDS011;27023;42.680;23.132;2022-11-21T00:39:21;9.20;;;9.00;;
12194;SDS011;27023;42.680;23.132;2022-11-21T00:41:48;9.90;;;9.67;;
12194;SDS011;27023;42.680;23.132;2022-11-21T00:44:15;12.27;;;11.87;;
12194;SDS011;27023;42.680;23.132;2022-11-21T00:46:42;11.90;;;11.50;;
12194;SDS011;27023;42.680;23.132;2022-11-21T00:49:08;13.60;;;13.10;;
12194;SDS011;27023;42.680;23.132;2022-11-21T00:51:36;15.13;;;14.57;;
12194;SDS011;27023;42.680;23.132;2022-11-21T00:54:03;13.60;;;13.10;;
12194;SDS011;27023;42.680;23.132;2022-11-21T00:56:30;13.20;;;12.73;;
12194;SDS011;27023;42.680;23.132;2022-11-21T00:58:56;13.37;;;12.87;;
12194;SDS011;27023;42.680;23.132;2022-11-21T01:01:23;15.67;;;15.07;;
12194;SDS011;27023;42.680;23.132;2022-11-21T01:03:49;15.80;;;15.20;;
12194;SDS011;27023;42.680;23.132;2022-11-21T01:06:16;14.43;;;13.90;;
12194;SDS011;27023;42.680;23.132;2022-11-21T01:08:44;14.37;;;13.80;;
12194;SDS011;27023;42.680;23.132;2022-11-21T01:11:12;15.80;;;15.20;;
12194;SDS011;27023;42.680;23.132;2022-11-21T01:13:40;21.80;;;20.87;;
12194;SDS011;27023;42.680;23.132;2022-11-21T01:16:08;15.57;;;14.97;;
12194;SDS011;27023;42.680;23.132;2022-11-21T01:18:36;16.30;;;15.60;;
12194;SDS011;27023;42.680;23.132;2022-11-21T01:21:04;26.00;;;24.83;;
12194;SDS011;27023;42.680;23.132;2022-11-21T01:23:32;20.37;;;19.57;;
12194;SDS011;27023;42.680;23.132;2022-11-21T01:26:03;17.00;;;16.37;;
12194;SDS011;27023;42.680;23.132;2022-11-21T01:28:31;13.33;;;12.90;;
12194;SDS011;27023;42.680;23.132;2022-11-21T01:31:02;15.73;;;15.17;;
12194;SDS011;27023;42.680;23.132;2022-11-21T01:33:30;15.50;;;14.97;;
12194;SDS011;27023;42.680;23.132;2022-11-21T01:35:57;14.33;;;13.83;;
12194;SDS011;27023;42.680;23.132;2022-11-21T01:38:31;15.37;;;14.83;;
12194;SDS011;27023;42.680;23.132;2022-11-21T01:40:58;15.27;;;14.73;;
12194;SDS011;27023;42.680;23.132;2022-11-21T01:43:26;11.00;;;10.70;;
12194;SDS011;27023;42.680;23.132;2022-11-21T01:45:54;10.67;;;10.37;;
12194;SDS011;27023;42.680;23.132;2022-11-21T01:48:24;12.47;;;12.07;;
12194;SDS011;27023;42.680;23.132;2022-11-21T01:50:55;10.37;;;10.07;;
12194;SDS011;27023;42.680;23.132;2022-11-21T01:53:26;11.57;;;11.27;;
12194;SDS011;27023;42.680;23.132;2022-11-21T01:55:53;12.80;;;12.27;;
12194;SDS011;27023;42.680;23.132;2022-11-21T01:58:19;10.40;;;10.10;;
12194;SDS011;27023;42.680;23.132;2022-11-21T02:00:55;10.53;;;10.23;;
12194;SDS011;27023;42.680;23.132;2022-11-21T02:03:22;11.30;;;11.00;;
12194;SDS011;27023;42.680;23.132;2022-11-21T02:05:53;12.47;;;12.07;;
12194;SDS011;27023;42.680;23.132;2022-11-21T02:08:21;10.20;;;9.93;;
12194;SDS011;27023;42.680;23.132;2022-11-21T02:10:53;11.27;;;10.97;;
12194;SDS011;27023;42.680;23.132;2022-11-21T02:13:28;11.67;;;11.37;;
12194;SDS011;27023;42.680;23.132;2022-11-21T02:15:56;11.67;;;11.37;;
12194;SDS011;27023;42.680;23.132;2022-11-21T02:18:23;10.37;;;10.10;;
12194;SDS011;27023;42.680;23.132;2022-11-21T02:20:50;9.17;;;8.97;;
12194;SDS011;27023;42.680;23.132;2022-11-21T02:23:23;9.40;;;9.20;;
12194;SDS011;27023;42.680;23.132;2022-11-21T02:25:56;9.23;;;9.03;;
12194;SDS011;27023;42.680;23.132;2022-11-21T02:28:23;8.40;;;8.20;;
12194;SDS011;27023;42.680;23.132;2022-11-21T02:30:51;8.70;;;8.50;;
12194;SDS011;27023;42.680;23.132;2022-11-21T02:33:17;8.00;;;7.90;;
12194;SDS011;27023;42.680;23.132;2022-11-21T02:35:53;8.30;;;8.10;;
12194;SDS011;27023;42.680;23.132;2022-11-21T02:38:22;10.07;;;9.83;;
12194;SDS011;27023;42.680;23.132;2022-11-21T02:40:51;9.97;;;9.77;;
12194;SDS011;27023;42.680;23.132;2022-11-21T02:43:22;7.77;;;7.67;;
12194;SDS011;27023;42.680;23.132;2022-11-21T02:45:51;8.77;;;8.57;;
12194;SDS011;27023;42.680;23.132;2022-11-21T02:48:18;9.50;;;9.30;;
12194;SDS011;27023;42.680;23.132;2022-11-21T02:50:45;8.97;;;8.77;;
12194;SDS011;27023;42.680;23.132;2022-11-21T02:53:13;8.83;;;8.63;;
12194;SDS011;27023;42.680;23.132;2022-11-21T02:55:41;7.97;;;7.83;;
12194;SDS011;27023;42.680;23.132;2022-11-21T02:58:08;8.60;;;8.40;;
12194;SDS011;27023;42.680;23.132;2022-11-21T03:00:37;9.53;;;9.33;;
12194;SDS011;27023;42.680;23.132;2022-11-21T03:03:05;8.93;;;8.73;;
12194;SDS011;27023;42.680;23.132;2022-11-21T03:05:32;10.20;;;9.93;;
12194;SDS011;27023;42.680;23.132;2022-11-21T03:07:59;8.53;;;8.33;;
12194;SDS011;27023;42.680;23.132;2022-11-21T03:10:25;9.67;;;9.37;;
12194;SDS011;27023;42.680;23.132;2022-11-21T03:12:52;8.93;;;8.73;;
12194;SDS011;27023;42.680;23.132;2022-11-21T03:15:25;9.20;;;9.00;;
12194;SDS011;27023;42.680;23.132;2022-11-21T03:17:53;9.63;;;9.43;;
12194;SDS011;27023;42.680;23.132;2022-11-21T03:20:20;9.20;;;9.00;;
12194;SDS011;27023;42.680;23.132;2022-11-21T03:22:47;9.30;;;9.10;;
12194;SDS011;27023;42.680;23.132;2022-11-21T03:25:14;8.37;;;8.20;;
12194;SDS011;27023;42.680;23.132;2022-11-21T03:27:41;9.43;;;9.23;;
12194;SDS011;27023;42.680;23.132;2022-11-21T03:30:08;9.27;;;9.07;;
12194;SDS011;27023;42.680;23.132;2022-11-21T03:32:36;9.33;;;9.13;;
12194;SDS011;27023;42.680;23.132;2022-11-21T03:35:04;10.40;;;10.10;;
12194;SDS011;27023;42.680;23.132;2022-11-21T03:37:31;8.80;;;8.60;;
12194;SDS011;27023;42.680;23.132;2022-11-21T03:39:58;8.47;;;8.27;;
12194;SDS011;27023;42.680;23.132;2022-11-21T03:42:24;9.13;;;8.93;;
12194;SDS011;27023;42.680;23.132;2022-11-21T03:44:51;9.07;;;8.87;;
12194;SDS011;27023;42.680;23.132;2022-11-21T03:47:18;8.13;;;8.00;;
12194;SDS011;27023;42.680;23.132;2022-11-21T03:49:44;10.27;;;10.00;;
12194;SDS011;27023;42.680;23.132;2022-11-21T03:52:12;9.03;;;8.83;;
12194;SDS011;27023;42.680;23.132;2022-11-21T03:54:39;9.43;;;9.23;;
12194;SDS011;27023;42.680;23.132;2022-11-21T03:57:06;8.03;;;7.90;;
12194;SDS011;27023;42.680;23.132;2022-11-21T03:59:46;8.10;;;7.93;;
12194;SDS011;27023;42.680;23.132;2022-11-21T04:02:13;8.37;;;8.20;;
12194;SDS011;27023;42.680;23.132;2022-11-21T04:04:40;8.40;;;8.20;;
12194;SDS011;27023;42.680;23.132;2022-11-21T04:07:06;8.23;;;8.03;;
12194;SDS011;27023;42.680;23.132;2022-11-21T04:09:34;8.40;;;8.20;;
12194;SDS011;27023;42.680;23.132;2022-11-21T04:12:01;7.70;;;7.60;;
12194;SDS011;27023;42.680;23.132;2022-11-21T04:14:28;8.40;;;8.20;;
12194;SDS011;27023;42.680;23.132;2022-11-21T04:16:54;8.63;;;8.43;;
12194;SDS011;27023;42.680;23.132;2022-11-21T04:19:21;8.43;;;8.23;;
12194;SDS011;27023;42.680;23.132;2022-11-21T04:21:48;8.50;;;8.30;;
12194;SDS011;27023;42.680;23.132;2022-11-21T04:24:14;9.33;;;9.03;;
12194;SDS011;27023;42.680;23.132;2022-11-21T04:26:42;7.90;;;7.80;;
12194;SDS011;27023;42.680;23.132;2022-11-21T04:29:09;7.37;;;7.27;;
12194;SDS011;27023;42.680;23.132;2022-11-21T04:31:35;7.30;;;7.20;;
12194;SDS011;27023;42.680;23.132;2022-11-21T04:34:02;8.73;;;8.53;;
12194;SDS011;27023;42.680;23.132;2022-11-21T04:36:29;9.07;;;8.87;;
12194;SDS011;27023;42.680;23.132;2022-11-21T04:38:56;16.40;;;14.57;;
12194;SDS011;27023;42.680;23.132;2022-11-21T04:41:26;7.90;;;7.80;;
12194;SDS011;27023;42.680;23.132;2022-11-21T04:43:54;7.70;;;7.60;;
12194;SDS011;27023;42.680;23.132;2022-11-21T04:46:21;7.60;;;7.50;;
12194;SDS011;27023;42.680;23.132;2022-11-21T04:48:51;8.27;;;8.13;;
12194;SDS011;27023;42.680;23.132;2022-11-21T04:51:17;8.03;;;7.93;;
12194;SDS011;27023;42.680;23.132;2022-11-21T04:53:44;7.20;;;7.10;;
12194;SDS011;27023;42.680;23.132;2022-11-21T04:56:11;8.15;;;8.05;;
12194;SDS011;27023;42.680;23.132;2022-11-21T04:58:40;6.00;;;5.90;;
12194;SDS011;27023;42.680;23.132;2022-11-21T05:01:08;7.13;;;7.03;;
12194;SDS011;27023;42.680;23.132;2022-11-21T05:03:35;6.80;;;6.70;;
12194;SDS011;27023;42.680;23.132;2022-11-21T05:06:02;8.50;;;8.33;;
12194;SDS011;27023;42.680;23.132;2022-11-21T05:08:29;7.80;;;7.70;;
12194;SDS011;27023;42.680;23.132;2022-11-21T05:10:55;7.83;;;7.73;;
12194;SDS011;27023;42.680;23.132;2022-11-21T05:13:40;10.23;;;9.97;;
12194;SDS011;27023;42.680;23.132;2022-11-21T05:16:06;10.60;;;10.30;;
12194;SDS011;27023;42.680;23.132;2022-11-21T05:18:34;28.33;;;12.90;;
12194;SDS011;27023;42.680;23.132;2022-11-21T05:21:01;9.53;;;9.33;;
12194;SDS011;27023;42.680;23.132;2022-11-21T05:23:28;8.50;;;8.30;;
12194;SDS011;27023;42.680;23.132;2022-11-21T05:25:55;9.20;;;9.00;;
12194;SDS011;27023;42.680;23.132;2022-11-21T05:28:22;9.27;;;9.07;;
12194;SDS011;27023;42.680;23.132;2022-11-21T05:30:48;8.03;;;7.90;;
12194;SDS011;27023;42.680;23.132;2022-11-21T05:33:15;8.67;;;8.47;;
12194;SDS011;27023;42.680;23.132;2022-11-21T05:35:43;8.13;;;8.00;;
12194;SDS011;27023;42.680;23.132;2022-11-21T05:38:10;9.90;;;9.70;;
12194;SDS011;27023;42.680;23.132;2022-11-21T05:40:37;9.73;;;9.53;;
12194;SDS011;27023;42.680;23.132;2022-11-21T05:43:04;9.40;;;9.20;;
12194;SDS011;27023;42.680;23.132;2022-11-21T05:45:48;10.50;;;10.23;;
12194;SDS011;27023;42.680;23.132;2022-11-21T05:48:15;10.73;;;10.43;;
12194;SDS011;27023;42.680;23.132;2022-11-21T05:50:41;10.33;;;10.13;;
12194;SDS011;27023;42.680;23.132;2022-11-21T05:53:14;10.17;;;9.90;;
12194;SDS011;27023;42.680;23.132;2022-11-21T05:55:41;9.87;;;9.67;;
12194;SDS011;27023;42.680;23.132;2022-11-21T05:58:08;8.67;;;8.47;;
12194;SDS011;27023;42.680;23.132;2022-11-21T06:00:35;8.07;;;7.97;;
12194;SDS011;27023;42.680;23.132;2022-11-21T06:03:02;8.13;;;8.03;;
12194;SDS011;27023;42.680;23.132;2022-11-21T06:05:48;7.97;;;7.87;;
12194;SDS011;27023;42.680;23.132;2022-11-21T06:08:14;8.93;;;8.73;;
12194;SDS011;27023;42.680;23.132;2022-11-21T06:10:41;11.00;;;10.70;;
12194;SDS011;27023;42.680;23.132;2022-11-21T06:13:08;13.90;;;13.50;;
12194;SDS011;27023;42.680;23.132;2022-11-21T06:15:46;10.20;;;10.00;;
12194;SDS011;27023;42.680;23.132;2022-11-21T06:18:13;9.63;;;9.43;;
12194;SDS011;27023;42.680;23.132;2022-11-21T06:20:40;11.87;;;11.53;;
12194;SDS011;27023;42.680;23.132;2022-11-21T06:23:09;11.30;;;11.00;;
12194;SDS011;27023;42.680;23.132;2022-11-21T06:25:35;12.50;;;12.10;;
12194;SDS011;27023;42.680;23.132;2022-11-21T06:28:07;12.23;;;11.87;;
12194;SDS011;27023;42.680;23.132;2022-11-21T06:30:34;10.20;;;9.93;;
12194;SDS011;27023;42.680;23.132;2022-11-21T06:33:02;12.07;;;11.70;;
12194;SDS011;27023;42.680;23.132;2022-11-21T06:35:30;8.20;;;8.00;;
12194;SDS011;27023;42.680;23.132;2022-11-21T06:37:56;10.40;;;10.10;;
12194;SDS011;27023;42.680;23.132;2022-11-21T06:40:24;12.90;;;12.50;;
12194;SDS011;27023;42.680;23.132;2022-11-21T06:42:51;23.20;;;22.20;;
12194;SDS011;27023;42.680;23.132;2022-11-21T06:45:18;14.43;;;13.93;;
12194;SDS011;27023;42.680;23.132;2022-11-21T06:47:45;18.17;;;17.43;;
12194;SDS011;27023;42.680;23.132;2022-11-21T06:50:11;16.53;;;15.83;;
12194;SDS011;27023;42.680;23.132;2022-11-21T06:52:38;15.77;;;15.10;;
12194;SDS011;27023;42.680;23.132;2022-11-21T06:55:06;15.93;;;15.30;;
12194;SDS011;27023;42.680;23.132;2022-11-21T06:57:34;17.33;;;16.67;;
12194;SDS011;27023;42.680;23.132;2022-11-21T07:00:01;18.20;;;17.40;;
12194;SDS011;27023;42.680;23.132;2022-11-21T07:02:29;19.63;;;18.83;;
12194;SDS011;27023;42.680;23.132;2022-11-21T07:04:56;20.90;;;19.90;;
12194;SDS011;27023;42.680;23.132;2022-11-21T07:07:22;18.17;;;17.40;;
12194;SDS011;27023;42.680;23.132;2022-11-21T07:09:49;17.37;;;16.67;;
12194;SDS011;27023;42.680;23.132;2022-11-21T07:12:16;16.77;;;16.13;;
12194;SDS011;27023;42.680;23.132;2022-11-21T07:15:01;19.77;;;18.87;;
12194;SDS011;27023;42.680;23.132;2022-11-21T07:17:28;17.13;;;16.43;;
12194;SDS011;27023;42.680;23.132;2022-11-21T07:19:54;20.03;;;19.17;;
12194;SDS011;27023;42.680;23.132;2022-11-21T07:22:21;21.47;;;20.47;;
12194;SDS011;27023;42.680;23.132;2022-11-21T07:24:48;18.93;;;18.03;;
12194;SDS011;27023;42.680;23.132;2022-11-21T07:27:15;17.60;;;16.80;;
12194;SDS011;27023;42.680;23.132;2022-11-21T07:29:41;27.43;;;26.07;;
12194;SDS011;27023;42.680;23.132;2022-11-21T07:32:09;21.80;;;20.73;;
12194;SDS011;27023;42.680;23.132;2022-11-21T07:34:36;20.43;;;19.47;;
12194;SDS011;27023;42.680;23.132;2022-11-21T07:37:03;24.33;;;23.17;;
12194;SDS011;27023;42.680;23.132;2022-11-21T07:39:29;27.77;;;26.40;;
12194;SDS011;27023;42.680;23.132;2022-11-21T07:41:56;18.40;;;17.60;;
12194;SDS011;27023;42.680;23.132;2022-11-21T07:44:22;18.10;;;17.20;;
12194;SDS011;27023;42.680;23.132;2022-11-21T07:46:52;15.07;;;14.47;;
12194;SDS011;27023;42.680;23.132;2022-11-21T07:49:21;20.93;;;20.00;;
12194;SDS011;27023;42.680;23.132;2022-11-21T07:51:47;17.87;;;17.07;;
12194;SDS011;27023;42.680;23.132;2022-11-21T07:54:14;19.97;;;19.10;;
12194;SDS011;27023;42.680;23.132;2022-11-21T07:56:41;17.73;;;17.03;;
12194;SDS011;27023;42.680;23.132;2022-11-21T07:59:07;17.33;;;16.53;;
12194;SDS011;27023;42.680;23.132;2022-11-21T08:01:34;17.80;;;17.10;;
12194;SDS011;27023;42.680;23.132;2022-11-21T08:04:01;16.07;;;15.47;;
12194;SDS011;27023;42.680;23.132;2022-11-21T08:06:29;19.20;;;18.40;;
12194;SDS011;27023;42.680;23.132;2022-11-21T08:08:55;17.87;;;17.10;;
12194;SDS011;27023;42.680;23.132;2022-11-21T08:11:22;17.67;;;16.90;;
12194;SDS011;27023;42.680;23.132;2022-11-21T08:13:49;13.97;;;13.43;;
12194;SDS011;27023;42.680;23.132;2022-11-21T08:16:16;15.37;;;14.73;;
12194;SDS011;27023;42.680;23.132;2022-11-21T08:18:43;14.97;;;14.37;;
12194;SDS011;27023;42.680;23.132;2022-11-21T08:21:09;16.10;;;15.50;;
12194;SDS011;27023;42.680;23.132;2022-11-21T08:23:37;16.80;;;16.10;;
12194;SDS011;27023;42.680;23.132;2022-11-21T08:26:05;18.17;;;17.47;;
12194;SDS011;27023;42.680;23.132;2022-11-21T08:28:34;17.67;;;16.97;;
12194;SDS011;27023;42.680;23.132;2022-11-21T08:31:02;18.67;;;17.90;;
12194;SDS011;27023;42.680;23.132;2022-11-21T08:33:29;20.53;;;19.73;;
12194;SDS011;27023;42.680;23.132;2022-11-21T08:35:55;16.03;;;15.43;;
12194;SDS011;27023;42.680;23.132;2022-11-21T08:38:22;22.53;;;21.50;;
12194;SDS011;27023;42.680;23.132;2022-11-21T08:40:50;17.50;;;16.70;;
12194;SDS011;27023;42.680;23.132;2022-11-21T08:43:37;19.43;;;18.53;;
12194;SDS011;27023;42.680;23.132;2022-11-21T08:46:04;18.53;;;17.73;;
12194;SDS011;27023;42.680;23.132;2022-11-21T08:48:30;15.80;;;15.17;;
12194;SDS011;27023;42.680;23.132;2022-11-21T08:50:57;17.40;;;16.67;;
12194;SDS011;27023;42.680;23.132;2022-11-21T08:53:24;17.17;;;16.37;;
12194;SDS011;27023;42.680;23.132;2022-11-21T08:55:53;18.07;;;17.30;;
12194;SDS011;27023;42.680;23.132;2022-11-21T08:58:20;17.50;;;16.70;;
12194;SDS011;27023;42.680;23.132;2022-11-21T09:00:47;17.27;;;16.33;;
12194;SDS011;27023;42.680;23.132;2022-11-21T09:03:13;15.67;;;14.97;;
12194;SDS011;27023;42.680;23.132;2022-11-21T09:05:40;17.00;;;16.30;;
12194;SDS011;27023;42.680;23.132;2022-11-21T09:08:07;14.97;;;14.30;;
12194;SDS011;27023;42.680;23.132;2022-11-21T09:10:33;15.80;;;15.17;;
12194;SDS011;27023;42.680;23.132;2022-11-21T09:13:01;14.23;;;13.67;;
12194;SDS011;27023;42.680;23.132;2022-11-21T09:15:28;17.33;;;16.63;;
12194;SDS011;27023;42.680;23.132;2022-11-21T09:18:12;17.53;;;16.83;;
12194;SDS011;27023;42.680;23.132;2022-11-21T09:20:40;15.20;;;14.57;;
12194;SDS011;27023;42.680;23.132;2022-11-21T09:23:09;15.13;;;14.53;;
12194;SDS011;27023;42.680;23.132;2022-11-21T09:25:37;14.73;;;14.13;;
12194;SDS011;27023;42.680;23.132;2022-11-21T09:28:06;16.50;;;15.80;;
12194;SDS011;27023;42.680;23.132;2022-11-21T09:30:34;12.90;;;12.40;;
12194;SDS011;27023;42.680;23.132;2022-11-21T09:33:01;12.23;;;11.77;;
12194;SDS011;27023;42.680;23.132;2022-11-21T09:35:29;15.17;;;14.50;;
12194;SDS011;27023;42.680;23.132;2022-11-21T09:37:55;17.07;;;16.37;;
12194;SDS011;27023;42.680;23.132;2022-11-21T09:40:22;15.60;;;15.00;;
12194;SDS011;27023;42.680;23.132;2022-11-21T09:42:53;15.67;;;15.00;;
12194;SDS011;27023;42.680;23.132;2022-11-21T09:45:30;16.37;;;15.77;;
12194;SDS011;27023;42.680;23.132;2022-11-21T09:48:00;24.17;;;23.00;;
12194;SDS011;27023;42.680;23.132;2022-11-21T09:50:34;21.37;;;20.37;;
12194;SDS011;27023;42.680;23.132;2022-11-21T09:53:05;20.87;;;19.90;;
12194;SDS011;27023;42.680;23.132;2022-11-21T09:55:40;23.00;;;21.93;;
12194;SDS011;27023;42.680;23.132;2022-11-21T09:58:13;18.33;;;17.53;;
12194;SDS011;27023;42.680;23.132;2022-11-21T10:00:50;18.97;;;18.17;;
12194;SDS011;27023;42.680;23.132;2022-11-21T10:03:17;17.63;;;16.93;;
12194;SDS011;27023;42.680;23.132;2022-11-21T10:05:47;15.67;;;15.07;;
12194;SDS011;27023;42.680;23.132;2022-11-21T10:08:20;16.00;;;15.40;;
12194;SDS011;27023;42.680;23.132;2022-11-21T10:10:55;16.37;;;15.70;;
12194;SDS011;27023;42.680;23.132;2022-11-21T10:13:36;15.33;;;14.67;;
12194;SDS011;27023;42.680;23.132;2022-11-21T10:16:15;13.10;;;12.67;;
12194;SDS011;27023;42.680;23.132;2022-11-21T10:21:53;12.47;;;12.07;;
12194;SDS011;27023;42.680;23.132;2022-11-21T10:24:39;14.47;;;13.87;;
12194;SDS011;27023;42.680;23.132;2022-11-21T10:27:14;15.27;;;14.67;;
12194;SDS011;27023;42.680;23.132;2022-11-21T10:29:45;16.17;;;15.57;;
12194;SDS011;27023;42.680;23.132;2022-11-21T10:32:20;15.47;;;14.87;;
12194;SDS011;27023;42.680;23.132;2022-11-21T10:34:52;14.93;;;14.37;;
12194;SDS011;27023;42.680;23.132;2022-11-21T10:37:26;14.73;;;14.13;;
12194;SDS011;27023;42.680;23.132;2022-11-21T10:39:57;14.53;;;14.03;;
12194;SDS011;27023;42.680;23.132;2022-11-21T10:42:35;15.50;;;14.97;;
12194;SDS011;27023;42.680;23.132;2022-11-21T10:45:07;19.10;;;18.30;;
12194;SDS011;27023;42.680;23.132;2022-11-21T10:47:45;19.40;;;18.60;;
12194;SDS011;27023;42.680;23.132;2022-11-21T10:50:23;20.83;;;19.90;;
12194;SDS011;27023;42.680;23.132;2022-11-21T10:53:00;19.97;;;19.03;;
12194;SDS011;27023;42.680;23.132;2022-11-21T10:55:56;24.63;;;23.53;;
12194;SDS011;27023;42.680;23.132;2022-11-21T10:58:34;22.57;;;21.60;;
12194;SDS011;27023;42.680;23.132;2022-11-21T11:01:05;22.20;;;21.17;;
12194;SDS011;27023;42.680;23.132;2022-11-21T11:03:33;22.43;;;21.43;;
12194;SDS011;27023;42.680;23.132;2022-11-21T11:06:00;28.50;;;27.10;;
12194;SDS011;27023;42.680;23.132;2022-11-21T11:08:26;29.43;;;27.97;;
12194;SDS011;27023;42.680;23.132;2022-11-21T11:11:03;18.77;;;17.90;;
12194;SDS011;27023;42.680;23.132;2022-11-21T11:13:32;14.10;;;13.53;;
12194;SDS011;27023;42.680;23.132;2022-11-21T11:16:15;16.47;;;15.70;;
12194;SDS011;27023;42.680;23.132;2022-11-21T11:18:47;20.17;;;19.37;;
12194;SDS011;27023;42.680;23.132;2022-11-21T11:21:20;21.37;;;20.40;;
12194;SDS011;27023;42.680;23.132;2022-11-21T11:23:48;21.63;;;20.67;;
12194;SDS011;27023;42.680;23.132;2022-11-21T11:26:23;18.60;;;17.77;;
12194;SDS011;27023;42.680;23.132;2022-11-21T11:28:51;26.30;;;25.07;;
12194;SDS011;27023;42.680;23.132;2022-11-21T11:31:20;15.80;;;15.10;;
12194;SDS011;27023;42.680;23.132;2022-11-21T11:33:52;21.97;;;20.97;;
12194;SDS011;27023;42.680;23.132;2022-11-21T11:36:25;20.50;;;19.67;;
12194;SDS011;27023;42.680;23.132;2022-11-21T11:38:59;14.33;;;13.73;;
12194;SDS011;27023;42.680;23.132;2022-11-21T11:41:41;19.60;;;18.70;;
12194;SDS011;27023;42.680;23.132;2022-11-21T11:44:51;16.83;;;16.20;;
12194;SDS011;27023;42.680;23.132;2022-11-21T11:47:47;18.60;;;17.80;;
12194;SDS011;27023;42.680;23.132;2022-11-21T11:50:21;16.40;;;15.70;;
12194;SDS011;27023;42.680;23.132;2022-11-21T11:52:54;16.20;;;15.60;;
12194;SDS011;27023;42.680;23.132;2022-11-21T11:55:28;15.10;;;14.50;;
12194;SDS011;27023;42.680;23.132;2022-11-21T11:58:00;17.63;;;16.93;;
12194;SDS011;27023;42.680;23.132;2022-11-21T12:00:34;17.23;;;16.53;;
12194;SDS011;27023;42.680;23.132;2022-11-21T12:03:09;20.17;;;19.33;;
12194;SDS011;27023;42.680;23.132;2022-11-21T12:05:49;19.63;;;18.73;;
12194;SDS011;27023;42.680;23.132;2022-11-21T12:08:22;28.07;;;26.80;;
12194;SDS011;27023;42.680;23.132;2022-11-21T12:10:53;15.97;;;15.37;;
12194;SDS011;27023;42.680;23.132;2022-11-21T12:13:42;20.03;;;19.17;;
12194;SDS011;27023;42.680;23.132;2022-11-21T12:16:11;16.17;;;15.53;;
12194;SDS011;27023;42.680;23.132;2022-11-21T12:18:41;13.90;;;13.40;;
12194;SDS011;27023;42.680;23.132;2022-11-21T12:21:18;14.10;;;13.60;;
12194;SDS011;27023;42.680;23.132;2022-11-21T12:23:47;14.70;;;14.10;;
12194;SDS011;27023;42.680;23.132;2022-11-21T12:26:19;15.03;;;14.43;;
12194;SDS011;27023;42.680;23.132;2022-11-21T12:29:02;11.60;;;11.20;;
12194;SDS011;27023;42.680;23.132;2022-11-21T12:31:42;12.10;;;11.70;;
12194;SDS011;27023;42.680;23.132;2022-11-21T12:34:25;11.00;;;10.70;;
12194;SDS011;27023;42.680;23.132;2022-11-21T12:37:06;11.63;;;11.23;;
12194;SDS011;27023;42.680;23.132;2022-11-21T12:42:39;15.03;;;14.43;;
12194;SDS011;27023;42.680;23.132;2022-11-21T12:45:21;14.30;;;13.80;;
12194;SDS011;27023;42.680;23.132;2022-11-21T12:48:02;15.40;;;14.80;;
12194;SDS011;27023;42.680;23.132;2022-11-21T12:50:59;16.30;;;15.63;;
12194;SDS011;27023;42.680;23.132;2022-11-21T12:54:07;14.07;;;13.57;;
12194;SDS011;27023;42.680;23.132;2022-11-21T12:57:01;17.77;;;17.07;;
12194;SDS011;27023;42.680;23.132;2022-11-21T12:59:34;25.33;;;24.17;;
12194;SDS011;27023;42.680;23.132;2022-11-21T13:02:12;33.17;;;31.53;;
12194;SDS011;27023;42.680;23.132;2022-11-21T13:04:49;32.50;;;30.93;;
12194;SDS011;27023;42.680;23.132;2022-11-21T13:07:16;32.23;;;30.60;;
12194;SDS011;27023;42.680;23.132;2022-11-21T13:09:47;32.23;;;30.57;;
12194;SDS011;27023;42.680;23.132;2022-11-21T13:12:20;31.97;;;30.30;;
12194;SDS011;27023;42.680;23.132;2022-11-21T13:14:51;21.73;;;20.77;;
12194;SDS011;27023;42.680;23.132;2022-11-21T13:17:26;14.73;;;14.03;;
12194;SDS011;27023;42.680;23.132;2022-11-21T13:20:03;14.00;;;13.33;;
12194;SDS011;27023;42.680;23.132;2022-11-21T13:22:51;13.17;;;12.57;;
12194;SDS011;27023;42.680;23.132;2022-11-21T13:25:43;14.73;;;14.13;;
12194;SDS011;27023;42.680;23.132;2022-11-21T13:28:26;14.00;;;13.50;;
12194;SDS011;27023;42.680;23.132;2022-11-21T13:30:57;14.37;;;13.80;;
12194;SDS011;27023;42.680;23.132;2022-11-21T13:42:03;12.23;;;11.73;;
12194;SDS011;27023;42.680;23.132;2022-11-21T13:44:54;13.47;;;12.87;;
12194;SDS011;27023;42.680;23.132;2022-11-21T13:54:01;13.10;;;12.63;;
12194;SDS011;27023;42.680;23.132;2022-11-21T13:56:40;13.10;;;12.63;;
12194;SDS011;27023;42.680;23.132;2022-11-21T13:59:32;12.17;;;11.70;;
12194;SDS011;27023;42.680;23.132;2022-11-21T14:02:19;11.87;;;11.37;;
12194;SDS011;27023;42.680;23.132;2022-11-21T14:05:16;13.87;;;13.37;;
12194;SDS011;27023;42.680;23.132;2022-11-21T14:08:10;14.10;;;13.53;;
12194;SDS011;27023;42.680;23.132;2022-11-21T14:10:43;16.23;;;15.63;;
12194;SDS011;27023;42.680;23.132;2022-11-21T14:13:15;17.03;;;15.70;;
12194;SDS011;27023;42.680;23.132;2022-11-21T14:15:52;17.67;;;16.90;;
12194;SDS011;27023;42.680;23.132;2022-11-21T14:18:28;17.20;;;16.47;;
12194;SDS011;27023;42.680;23.132;2022-11-21T14:20:56;16.23;;;15.60;;
12194;SDS011;27023;42.680;23.132;2022-11-21T14:23:25;16.43;;;15.77;;
12194;SDS011;27023;42.680;23.132;2022-11-21T14:25:54;16.50;;;15.80;;
12194;SDS011;27023;42.680;23.132;2022-11-21T14:28:24;16.83;;;16.17;;
12194;SDS011;27023;42.680;23.132;2022-11-21T14:30:57;18.73;;;17.83;;
12194;SDS011;27023;42.680;23.132;2022-11-21T14:33:25;16.23;;;15.53;;
12194;SDS011;27023;42.680;23.132;2022-11-21T14:35:57;16.17;;;15.47;;
12194;SDS011;27023;42.680;23.132;2022-11-21T14:38:26;16.27;;;15.57;;
12194;SDS011;27023;42.680;23.132;2022-11-21T14:43:48;16.90;;;16.17;;
12194;SDS011;27023;42.680;23.132;2022-11-21T14:46:19;16.57;;;15.90;;
12194;SDS011;27023;42.680;23.132;2022-11-21T14:48:46;17.60;;;16.77;;
12194;SDS011;27023;42.680;23.132;2022-11-21T14:51:13;17.60;;;16.83;;
12194;SDS011;27023;42.680;23.132;2022-11-21T14:53:43;19.53;;;18.67;;
12194;SDS011;27023;42.680;23.132;2022-11-21T14:56:12;21.73;;;20.70;;
12194;SDS011;27023;42.680;23.132;2022-11-21T14:58:46;18.37;;;17.57;;